sensor_id;sensor_type;location;lat;lon;timestamp;temperature;humidity
5459;DHT22;2752;49.992;8.422;2023-07-09T00:02:18;22.00;1.00
5459;DHT22;2752;49.992;8.422;2023-07-09T00:04:44;22.00;1.00
5459;DHT22;2752;49.992;8.422;2023-07-09T00:07:19;22.00;1.00
5459;DHT22;2752;49.992;8.422;2023-07-09T00:09:48;22.00;1.00
5459;DHT22;2752;49.992;8.422;2023-07-09T00:12:17;22.00;1.00
5459;DHT22;2752;49.992;8.422;2023-07-09T00:14:44;21.90;1.00
5459;DHT22;2752;49.992;8.422;2023-07-09T00:17:17;22.00;1.00
5459;DHT22;2752;49.992;8.422;2023-07-09T00:19:45;22.00;1.00
5459;DHT22;2752;49.992;8.422;2023-07-09T00:22:14;22.00;1.00
5459;DHT22;2752;49.992;8.422;2023-07-09T00:24:42;21.90;1.00
5459;DHT22;2752;49.992;8.422;2023-07-09T00:27:10;21.90;1.00
5459;DHT22;2752;49.992;8.422;2023-07-09T00:29:38;21.90;1.00
5459;DHT22;2752;49.992;8.422;2023-07-09T00:32:12;21.80;1.00
5459;DHT22;2752;49.992;8.422;2023-07-09T00:34:40;21.80;1.00
5459;DHT22;2752;49.992;8.422;2023-07-09T00:37:10;21.80;1.00
5459;DHT22;2752;49.992;8.422;2023-07-09T00:39:38;21.70;1.00
5459;DHT22;2752;49.992;8.422;2023-07-09T00:42:08;21.70;1.00
5459;DHT22;2752;49.992;8.422;2023-07-09T00:44:38;21.80;1.00
5459;DHT22;2752;49.992;8.422;2023-07-09T00:47:23;21.70;1.00
5459;DHT22;2752;49.992;8.422;2023-07-09T00:49:59;21.70;1.00
5459;DHT22;2752;49.992;8.422;2023-07-09T00:52:33;21.60;1.00
5459;DHT22;2752;49.992;8.422;2023-07-09T00:55:05;21.60;1.00
5459;DHT22;2752;49.992;8.422;2023-07-09T00:57:34;21.60;1.00
5459;DHT22;2752;49.992;8.422;2023-07-09T01:00:09;21.50;1.00
5459;DHT22;2752;49.992;8.422;2023-07-09T01:02:39;21.60;1.00
5459;DHT22;2752;49.992;8.422;2023-07-09T01:05:09;21.50;1.00
5459;DHT22;2752;49.992;8.422;2023-07-09T01:07:37;21.50;1.00
5459;DHT22;2752;49.992;8.422;2023-07-09T01:10:05;21.60;1.00
5459;DHT22;2752;49.992;8.422;2023-07-09T01:12:32;21.40;1.00
5459;DHT22;2752;49.992;8.422;2023-07-09T01:14:59;21.50;1.00
5459;DHT22;2752;49.992;8.422;2023-07-09T01:17:28;21.40;1.00
5459;DHT22;2752;49.992;8.422;2023-07-09T01:19:56;21.30;1.00
5459;DHT22;2752;49.992;8.422;2023-07-09T01:22:24;21.20;1.00
5459;DHT22;2752;49.992;8.422;2023-07-09T01:24:55;21.20;1.00
5459;DHT22;2752;49.992;8.422;2023-07-09T01:27:26;21.30;1.00
5459;DHT22;2752;49.992;8.422;2023-07-09T01:29:54;21.30;1.00
5459;DHT22;2752;49.992;8.422;2023-07-09T01:32:21;21.20;1.00
5459;DHT22;2752;49.992;8.422;2023-07-09T01:34:52;21.10;1.00
5459;DHT22;2752;49.992;8.422;2023-07-09T01:37:22;21.20;1.00
5459;DHT22;2752;49.992;8.422;2023-07-09T01:39:51;21.40;1.00
5459;DHT22;2752;49.992;8.422;2023-07-09T01:42:21;21.60;1.00
5459;DHT22;2752;49.992;8.422;2023-07-09T01:44:48;21.50;1.00
5459;DHT22;2752;49.992;8.422;2023-07-09T01:47:15;21.40;1.00
5459;DHT22;2752;49.992;8.422;2023-07-09T01:49:42;21.50;1.00
5459;DHT22;2752;49.992;8.422;2023-07-09T01:52:13;21.40;1.00
5459;DHT22;2752;49.992;8.422;2023-07-09T01:54:42;21.30;1.00
5459;DHT22;2752;49.992;8.422;2023-07-09T01:57:17;21.40;1.00
5459;DHT22;2752;49.992;8.422;2023-07-09T01:59:48;21.40;1.00
5459;DHT22;2752;49.992;8.422;2023-07-09T02:02:15;21.50;1.00
5459;DHT22;2752;49.992;8.422;2023-07-09T02:04:48;21.50;1.00
5459;DHT22;2752;49.992;8.422;2023-07-09T02:07:16;21.50;1.00
5459;DHT22;2752;49.992;8.422;2023-07-09T02:09:43;21.60;1.00
5459;DHT22;2752;49.992;8.422;2023-07-09T02:12:10;21.60;1.00
5459;DHT22;2752;49.992;8.422;2023-07-09T02:14:40;21.50;1.00
5459;DHT22;2752;49.992;8.422;2023-07-09T02:17:07;21.30;1.00
5459;DHT22;2752;49.992;8.422;2023-07-09T02:19:34;21.20;1.00
5459;DHT22;2752;49.992;8.422;2023-07-09T02:22:01;21.10;1.00
5459;DHT22;2752;49.992;8.422;2023-07-09T02:24:28;21.00;1.00
5459;DHT22;2752;49.992;8.422;2023-07-09T02:26:55;20.90;1.00
5459;DHT22;2752;49.992;8.422;2023-07-09T02:29:23;20.90;1.00
5459;DHT22;2752;49.992;8.422;2023-07-09T02:31:52;21.10;1.00
5459;DHT22;2752;49.992;8.422;2023-07-09T02:36:51;21.00;1.00
5459;DHT22;2752;49.992;8.422;2023-07-09T02:39:18;20.90;1.00
5459;DHT22;2752;49.992;8.422;2023-07-09T02:41:45;20.90;1.00
5459;DHT22;2752;49.992;8.422;2023-07-09T02:44:12;20.80;1.00
5459;DHT22;2752;49.992;8.422;2023-07-09T02:46:39;20.80;1.00
5459;DHT22;2752;49.992;8.422;2023-07-09T02:49:10;21.00;1.00
5459;DHT22;2752;49.992;8.422;2023-07-09T02:51:37;21.00;1.00
5459;DHT22;2752;49.992;8.422;2023-07-09T02:54:04;21.10;1.00
5459;DHT22;2752;49.992;8.422;2023-07-09T02:56:31;21.10;1.00
5459;DHT22;2752;49.992;8.422;2023-07-09T02:58:58;20.80;1.00
5459;DHT22;2752;49.992;8.422;2023-07-09T03:01:25;20.80;1.00
5459;DHT22;2752;49.992;8.422;2023-07-09T03:03:52;20.70;1.00
5459;DHT22;2752;49.992;8.422;2023-07-09T03:06:21;20.60;1.00
5459;DHT22;2752;49.992;8.422;2023-07-09T03:08:48;20.50;1.00
5459;DHT22;2752;49.992;8.422;2023-07-09T03:11:16;20.40;1.00
5459;DHT22;2752;49.992;8.422;2023-07-09T03:13:43;20.40;1.00
5459;DHT22;2752;49.992;8.422;2023-07-09T03:16:10;20.30;1.00
5459;DHT22;2752;49.992;8.422;2023-07-09T03:18:38;20.40;1.00
5459;DHT22;2752;49.992;8.422;2023-07-09T03:21:05;20.30;1.00
5459;DHT22;2752;49.992;8.422;2023-07-09T03:23:33;20.30;1.00
5459;DHT22;2752;49.992;8.422;2023-07-09T03:25:59;20.20;1.00
5459;DHT22;2752;49.992;8.422;2023-07-09T03:28:26;20.10;1.00
5459;DHT22;2752;49.992;8.422;2023-07-09T03:30:54;20.10;1.00
5459;DHT22;2752;49.992;8.422;2023-07-09T03:33:21;20.10;1.00
5459;DHT22;2752;49.992;8.422;2023-07-09T03:35:48;20.10;1.00
5459;DHT22;2752;49.992;8.422;2023-07-09T03:38:15;20.20;1.00
5459;DHT22;2752;49.992;8.422;2023-07-09T03:40:43;20.40;1.00
5459;DHT22;2752;49.992;8.422;2023-07-09T03:43:10;20.50;1.00
5459;DHT22;2752;49.992;8.422;2023-07-09T03:45:37;20.50;1.00
5459;DHT22;2752;49.992;8.422;2023-07-09T03:48:05;20.40;1.00
5459;DHT22;2752;49.992;8.422;2023-07-09T03:53:00;20.40;1.00
5459;DHT22;2752;49.992;8.422;2023-07-09T03:55:27;20.40;1.00
5459;DHT22;2752;49.992;8.422;2023-07-09T03:57:55;20.40;1.00
5459;DHT22;2752;49.992;8.422;2023-07-09T04:00:22;20.60;1.00
5459;DHT22;2752;49.992;8.422;2023-07-09T04:02:50;20.70;1.00
5459;DHT22;2752;49.992;8.422;2023-07-09T04:05:17;20.70;1.00
5459;DHT22;2752;49.992;8.422;2023-07-09T04:07:44;20.60;1.00
5459;DHT22;2752;49.992;8.422;2023-07-09T04:12:38;20.60;1.00
5459;DHT22;2752;49.992;8.422;2023-07-09T04:15:07;20.60;1.00
5459;DHT22;2752;49.992;8.422;2023-07-09T04:17:34;20.60;1.00
5459;DHT22;2752;49.992;8.422;2023-07-09T04:20:01;20.60;1.00
5459;DHT22;2752;49.992;8.422;2023-07-09T04:22:31;20.70;1.00
5459;DHT22;2752;49.992;8.422;2023-07-09T04:24:57;20.70;1.00
5459;DHT22;2752;49.992;8.422;2023-07-09T04:27:24;20.70;1.00
5459;DHT22;2752;49.992;8.422;2023-07-09T04:29:53;20.80;1.00
5459;DHT22;2752;49.992;8.422;2023-07-09T04:34:48;20.70;1.00
5459;DHT22;2752;49.992;8.422;2023-07-09T04:37:16;20.60;1.00
5459;DHT22;2752;49.992;8.422;2023-07-09T04:39:43;20.60;1.00
5459;DHT22;2752;49.992;8.422;2023-07-09T04:42:11;20.60;1.00
5459;DHT22;2752;49.992;8.422;2023-07-09T04:44:38;20.50;1.00
5459;DHT22;2752;49.992;8.422;2023-07-09T04:47:05;20.70;1.00
5459;DHT22;2752;49.992;8.422;2023-07-09T04:49:34;20.70;1.00
5459;DHT22;2752;49.992;8.422;2023-07-09T04:52:01;20.80;1.00
5459;DHT22;2752;49.992;8.422;2023-07-09T04:59:24;20.80;1.00
5459;DHT22;2752;49.992;8.422;2023-07-09T05:01:50;20.80;1.00
5459;DHT22;2752;49.992;8.422;2023-07-09T05:04:17;20.80;1.00
5459;DHT22;2752;49.992;8.422;2023-07-09T05:06:45;20.80;1.00
5459;DHT22;2752;49.992;8.422;2023-07-09T05:09:11;20.90;1.00
5459;DHT22;2752;49.992;8.422;2023-07-09T05:11:38;21.00;1.00
5459;DHT22;2752;49.992;8.422;2023-07-09T05:14:05;21.00;1.00
5459;DHT22;2752;49.992;8.422;2023-07-09T05:16:31;21.40;1.00
5459;DHT22;2752;49.992;8.422;2023-07-09T05:18:58;21.30;1.00
5459;DHT22;2752;49.992;8.422;2023-07-09T05:21:25;21.40;1.00
5459;DHT22;2752;49.992;8.422;2023-07-09T05:23:52;21.40;1.00
5459;DHT22;2752;49.992;8.422;2023-07-09T05:26:19;21.50;1.00
5459;DHT22;2752;49.992;8.422;2023-07-09T05:28:46;21.60;1.00
5459;DHT22;2752;49.992;8.422;2023-07-09T05:31:12;21.60;1.00
5459;DHT22;2752;49.992;8.422;2023-07-09T05:33:39;22.00;1.00
5459;DHT22;2752;49.992;8.422;2023-07-09T05:36:06;22.00;1.00
5459;DHT22;2752;49.992;8.422;2023-07-09T05:38:33;22.10;1.00
5459;DHT22;2752;49.992;8.422;2023-07-09T05:41:03;22.30;1.00
5459;DHT22;2752;49.992;8.422;2023-07-09T05:43:30;22.40;1.00
5459;DHT22;2752;49.992;8.422;2023-07-09T05:45:56;22.50;1.00
5459;DHT22;2752;49.992;8.422;2023-07-09T05:48:23;22.50;1.00
5459;DHT22;2752;49.992;8.422;2023-07-09T05:50:53;22.50;1.00
5459;DHT22;2752;49.992;8.422;2023-07-09T05:53:21;22.60;1.00
5459;DHT22;2752;49.992;8.422;2023-07-09T05:55:48;22.60;1.00
5459;DHT22;2752;49.992;8.422;2023-07-09T05:58:16;22.70;1.00
5459;DHT22;2752;49.992;8.422;2023-07-09T06:00:42;22.90;1.00
5459;DHT22;2752;49.992;8.422;2023-07-09T06:03:09;23.00;1.00
5459;DHT22;2752;49.992;8.422;2023-07-09T06:05:36;23.20;1.00
5459;DHT22;2752;49.992;8.422;2023-07-09T06:08:03;23.30;1.00
5459;DHT22;2752;49.992;8.422;2023-07-09T06:10:30;23.40;1.00
5459;DHT22;2752;49.992;8.422;2023-07-09T06:12:57;23.50;1.00
5459;DHT22;2752;49.992;8.422;2023-07-09T06:15:26;23.60;1.00
5459;DHT22;2752;49.992;8.422;2023-07-09T06:17:52;23.80;1.00
5459;DHT22;2752;49.992;8.422;2023-07-09T06:20:19;24.00;1.00
5459;DHT22;2752;49.992;8.422;2023-07-09T06:22:45;24.10;1.00
5459;DHT22;2752;49.992;8.422;2023-07-09T06:25:12;24.20;1.00
5459;DHT22;2752;49.992;8.422;2023-07-09T06:27:39;24.40;1.00
5459;DHT22;2752;49.992;8.422;2023-07-09T06:30:07;24.50;1.00
5459;DHT22;2752;49.992;8.422;2023-07-09T06:35:02;24.60;1.00
5459;DHT22;2752;49.992;8.422;2023-07-09T06:37:29;24.70;1.00
5459;DHT22;2752;49.992;8.422;2023-07-09T06:39:55;24.80;1.00
5459;DHT22;2752;49.992;8.422;2023-07-09T06:42:22;24.90;1.00
5459;DHT22;2752;49.992;8.422;2023-07-09T06:44:49;25.00;1.00
5459;DHT22;2752;49.992;8.422;2023-07-09T06:47:15;25.00;1.00
5459;DHT22;2752;49.992;8.422;2023-07-09T06:49:43;25.20;1.00
5459;DHT22;2752;49.992;8.422;2023-07-09T06:52:10;25.50;1.00
5459;DHT22;2752;49.992;8.422;2023-07-09T06:54:36;25.60;1.00
5459;DHT22;2752;49.992;8.422;2023-07-09T06:57:04;25.70;1.00
5459;DHT22;2752;49.992;8.422;2023-07-09T06:59:31;25.90;1.00
5459;DHT22;2752;49.992;8.422;2023-07-09T07:01:57;25.90;1.00
5459;DHT22;2752;49.992;8.422;2023-07-09T07:04:25;26.00;1.00
5459;DHT22;2752;49.992;8.422;2023-07-09T07:06:54;26.10;1.00
5459;DHT22;2752;49.992;8.422;2023-07-09T07:09:22;26.40;1.00
5459;DHT22;2752;49.992;8.422;2023-07-09T07:11:49;26.60;1.00
5459;DHT22;2752;49.992;8.422;2023-07-09T07:14:16;26.80;1.00
5459;DHT22;2752;49.992;8.422;2023-07-09T07:16:42;26.90;1.00
5459;DHT22;2752;49.992;8.422;2023-07-09T07:19:09;26.90;1.00
5459;DHT22;2752;49.992;8.422;2023-07-09T07:24:05;27.00;1.00
5459;DHT22;2752;49.992;8.422;2023-07-09T07:26:32;27.20;1.00
5459;DHT22;2752;49.992;8.422;2023-07-09T07:28:59;27.40;1.00
5459;DHT22;2752;49.992;8.422;2023-07-09T07:31:25;27.70;1.00
5459;DHT22;2752;49.992;8.422;2023-07-09T07:33:52;27.70;1.00
5459;DHT22;2752;49.992;8.422;2023-07-09T07:36:19;27.70;1.00
5459;DHT22;2752;49.992;8.422;2023-07-09T07:38:45;27.60;1.00
5459;DHT22;2752;49.992;8.422;2023-07-09T07:41:13;27.70;1.00
5459;DHT22;2752;49.992;8.422;2023-07-09T07:43:40;27.90;1.00
5459;DHT22;2752;49.992;8.422;2023-07-09T07:46:07;28.00;1.00
5459;DHT22;2752;49.992;8.422;2023-07-09T07:48:34;28.10;1.00
5459;DHT22;2752;49.992;8.422;2023-07-09T07:51:01;28.20;1.00
5459;DHT22;2752;49.992;8.422;2023-07-09T07:53:28;28.30;1.00
5459;DHT22;2752;49.992;8.422;2023-07-09T07:55:55;28.30;1.00
5459;DHT22;2752;49.992;8.422;2023-07-09T07:58:23;28.50;1.00
5459;DHT22;2752;49.992;8.422;2023-07-09T08:00:51;28.70;1.00
5459;DHT22;2752;49.992;8.422;2023-07-09T08:03:20;28.90;1.00
5459;DHT22;2752;49.992;8.422;2023-07-09T08:05:48;28.90;1.00
5459;DHT22;2752;49.992;8.422;2023-07-09T08:08:15;29.00;1.00
5459;DHT22;2752;49.992;8.422;2023-07-09T08:10:42;29.30;1.00
5459;DHT22;2752;49.992;8.422;2023-07-09T08:13:09;29.30;1.00
5459;DHT22;2752;49.992;8.422;2023-07-09T08:15:37;29.40;1.00
5459;DHT22;2752;49.992;8.422;2023-07-09T08:18:04;29.40;1.00
5459;DHT22;2752;49.992;8.422;2023-07-09T08:20:30;29.60;1.00
5459;DHT22;2752;49.992;8.422;2023-07-09T08:22:58;29.80;1.00
5459;DHT22;2752;49.992;8.422;2023-07-09T08:25:25;30.00;1.00
5459;DHT22;2752;49.992;8.422;2023-07-09T08:27:52;30.20;1.00
5459;DHT22;2752;49.992;8.422;2023-07-09T08:30:18;30.20;1.00
5459;DHT22;2752;49.992;8.422;2023-07-09T08:32:46;30.10;1.00
5459;DHT22;2752;49.992;8.422;2023-07-09T08:35:13;30.10;1.00
5459;DHT22;2752;49.992;8.422;2023-07-09T08:37:41;30.20;1.00
5459;DHT22;2752;49.992;8.422;2023-07-09T08:40:12;30.20;1.00
5459;DHT22;2752;49.992;8.422;2023-07-09T08:42:43;30.40;1.00
5459;DHT22;2752;49.992;8.422;2023-07-09T08:45:20;30.60;1.00
5459;DHT22;2752;49.992;8.422;2023-07-09T08:48:00;30.70;1.00
5459;DHT22;2752;49.992;8.422;2023-07-09T08:50:34;30.70;1.00
5459;DHT22;2752;49.992;8.422;2023-07-09T08:55:33;31.00;1.00
5459;DHT22;2752;49.992;8.422;2023-07-09T08:58:12;31.10;1.00
5459;DHT22;2752;49.992;8.422;2023-07-09T09:00:44;31.10;1.00
5459;DHT22;2752;49.992;8.422;2023-07-09T09:03:27;31.10;1.00
5459;DHT22;2752;49.992;8.422;2023-07-09T09:05:55;31.00;1.00
5459;DHT22;2752;49.992;8.422;2023-07-09T09:08:30;31.10;1.00
5459;DHT22;2752;49.992;8.422;2023-07-09T09:11:07;31.20;1.00
5459;DHT22;2752;49.992;8.422;2023-07-09T09:13:36;31.40;1.00
5459;DHT22;2752;49.992;8.422;2023-07-09T09:16:10;31.70;1.00
5459;DHT22;2752;49.992;8.422;2023-07-09T09:18:43;31.70;1.00
5459;DHT22;2752;49.992;8.422;2023-07-09T09:21:15;31.80;1.00
5459;DHT22;2752;49.992;8.422;2023-07-09T09:23:48;31.90;1.00
5459;DHT22;2752;49.992;8.422;2023-07-09T09:26:18;32.10;1.00
5459;DHT22;2752;49.992;8.422;2023-07-09T09:28:47;32.30;1.00
5459;DHT22;2752;49.992;8.422;2023-07-09T09:31:15;32.10;1.00
5459;DHT22;2752;49.992;8.422;2023-07-09T09:33:46;32.10;1.00
5459;DHT22;2752;49.992;8.422;2023-07-09T09:36:16;32.30;1.00
5459;DHT22;2752;49.992;8.422;2023-07-09T09:38:43;32.30;1.00
5459;DHT22;2752;49.992;8.422;2023-07-09T09:41:14;32.50;1.00
5459;DHT22;2752;49.992;8.422;2023-07-09T09:43:42;32.60;1.00
5459;DHT22;2752;49.992;8.422;2023-07-09T09:46:17;32.70;1.00
5459;DHT22;2752;49.992;8.422;2023-07-09T09:48:47;32.80;1.00
5459;DHT22;2752;49.992;8.422;2023-07-09T09:51:15;33.00;1.00
5459;DHT22;2752;49.992;8.422;2023-07-09T09:53:46;32.90;1.00
5459;DHT22;2752;49.992;8.422;2023-07-09T09:58:43;33.00;1.00
5459;DHT22;2752;49.992;8.422;2023-07-09T10:01:15;33.10;1.00
5459;DHT22;2752;49.992;8.422;2023-07-09T10:03:43;33.10;1.00
5459;DHT22;2752;49.992;8.422;2023-07-09T10:06:16;33.20;1.00
5459;DHT22;2752;49.992;8.422;2023-07-09T10:08:54;33.30;1.00
5459;DHT22;2752;49.992;8.422;2023-07-09T10:11:29;33.50;1.00
5459;DHT22;2752;49.992;8.422;2023-07-09T10:14:01;33.60;1.00
5459;DHT22;2752;49.992;8.422;2023-07-09T10:16:36;33.70;1.00
5459;DHT22;2752;49.992;8.422;2023-07-09T10:19:14;34.00;1.00
5459;DHT22;2752;49.992;8.422;2023-07-09T10:21:47;34.10;1.00
5459;DHT22;2752;49.992;8.422;2023-07-09T10:24:30;34.10;1.00
5459;DHT22;2752;49.992;8.422;2023-07-09T10:27:05;34.40;1.00
5459;DHT22;2752;49.992;8.422;2023-07-09T10:29:52;34.40;1.00
5459;DHT22;2752;49.992;8.422;2023-07-09T10:32:33;34.60;1.00
5459;DHT22;2752;49.992;8.422;2023-07-09T10:37:55;34.90;1.00
5459;DHT22;2752;49.992;8.422;2023-07-09T10:40:30;35.00;1.00
5459;DHT22;2752;49.992;8.422;2023-07-09T10:43:00;35.10;1.00
5459;DHT22;2752;49.992;8.422;2023-07-09T10:45:30;35.20;1.00
5459;DHT22;2752;49.992;8.422;2023-07-09T10:48:01;35.30;1.00
5459;DHT22;2752;49.992;8.422;2023-07-09T10:50:31;35.40;1.00
5459;DHT22;2752;49.992;8.422;2023-07-09T10:53:03;35.20;1.00
5459;DHT22;2752;49.992;8.422;2023-07-09T10:55:33;35.20;1.00
5459;DHT22;2752;49.992;8.422;2023-07-09T10:58:10;35.40;1.00
5459;DHT22;2752;49.992;8.422;2023-07-09T11:00:41;35.50;1.00
5459;DHT22;2752;49.992;8.422;2023-07-09T11:03:14;35.60;1.00
5459;DHT22;2752;49.992;8.422;2023-07-09T11:05:42;35.50;1.00
5459;DHT22;2752;49.992;8.422;2023-07-09T11:08:12;35.70;1.00
5459;DHT22;2752;49.992;8.422;2023-07-09T11:10:46;35.60;1.00
5459;DHT22;2752;49.992;8.422;2023-07-09T11:13:17;35.70;1.00
5459;DHT22;2752;49.992;8.422;2023-07-09T11:15:48;35.70;1.00
5459;DHT22;2752;49.992;8.422;2023-07-09T11:18:21;35.80;1.00
5459;DHT22;2752;49.992;8.422;2023-07-09T11:20:56;35.90;1.00
5459;DHT22;2752;49.992;8.422;2023-07-09T11:23:36;36.20;1.00
5459;DHT22;2752;49.992;8.422;2023-07-09T11:26:11;36.30;1.00
5459;DHT22;2752;49.992;8.422;2023-07-09T11:28:40;36.40;1.00
5459;DHT22;2752;49.992;8.422;2023-07-09T11:31:14;36.50;1.00
5459;DHT22;2752;49.992;8.422;2023-07-09T11:33:46;36.60;1.00
5459;DHT22;2752;49.992;8.422;2023-07-09T11:36:24;36.80;1.00
5459;DHT22;2752;49.992;8.422;2023-07-09T11:38:53;36.90;1.00
5459;DHT22;2752;49.992;8.422;2023-07-09T11:41:27;36.90;1.00
5459;DHT22;2752;49.992;8.422;2023-07-09T11:44:03;36.80;1.00
5459;DHT22;2752;49.992;8.422;2023-07-09T11:46:31;36.80;1.00
5459;DHT22;2752;49.992;8.422;2023-07-09T11:48:59;36.90;1.00
5459;DHT22;2752;49.992;8.422;2023-07-09T11:51:34;36.90;1.00
5459;DHT22;2752;49.992;8.422;2023-07-09T11:54:04;37.00;1.00
5459;DHT22;2752;49.992;8.422;2023-07-09T11:56:32;37.00;1.00
5459;DHT22;2752;49.992;8.422;2023-07-09T11:58:59;37.00;1.00
5459;DHT22;2752;49.992;8.422;2023-07-09T12:01:29;37.10;1.00
5459;DHT22;2752;49.992;8.422;2023-07-09T12:03:58;37.00;1.00
5459;DHT22;2752;49.992;8.422;2023-07-09T12:06:28;37.00;1.00
5459;DHT22;2752;49.992;8.422;2023-07-09T12:08:55;36.90;1.00
5459;DHT22;2752;49.992;8.422;2023-07-09T12:11:25;36.90;1.00
5459;DHT22;2752;49.992;8.422;2023-07-09T12:13:53;37.10;1.00
5459;DHT22;2752;49.992;8.422;2023-07-09T12:16:25;37.10;1.00
5459;DHT22;2752;49.992;8.422;2023-07-09T12:18:52;37.10;1.00
5459;DHT22;2752;49.992;8.422;2023-07-09T12:21:19;37.20;1.00
5459;DHT22;2752;49.992;8.422;2023-07-09T12:23:46;37.20;1.00
5459;DHT22;2752;49.992;8.422;2023-07-09T12:26:15;37.30;1.00
5459;DHT22;2752;49.992;8.422;2023-07-09T12:28:49;37.40;1.00
5459;DHT22;2752;49.992;8.422;2023-07-09T12:31:17;37.50;1.00
5459;DHT22;2752;49.992;8.422;2023-07-09T12:36:16;37.60;1.00
5459;DHT22;2752;49.992;8.422;2023-07-09T12:38:48;37.70;1.00
5459;DHT22;2752;49.992;8.422;2023-07-09T12:41:19;37.70;1.00
5459;DHT22;2752;49.992;8.422;2023-07-09T12:43:50;37.70;1.00
5459;DHT22;2752;49.992;8.422;2023-07-09T12:46:17;37.70;1.00
5459;DHT22;2752;49.992;8.422;2023-07-09T12:48:45;37.70;1.00
5459;DHT22;2752;49.992;8.422;2023-07-09T12:51:15;37.70;1.00
5459;DHT22;2752;49.992;8.422;2023-07-09T12:53:42;37.60;1.00
5459;DHT22;2752;49.992;8.422;2023-07-09T12:56:12;37.50;1.00
5459;DHT22;2752;49.992;8.422;2023-07-09T12:58:39;37.70;1.00
5459;DHT22;2752;49.992;8.422;2023-07-09T13:01:15;37.80;1.00
5459;DHT22;2752;49.992;8.422;2023-07-09T13:03:53;37.80;1.00
5459;DHT22;2752;49.992;8.422;2023-07-09T13:06:27;37.90;1.00
5459;DHT22;2752;49.992;8.422;2023-07-09T13:08:56;37.80;1.00
5459;DHT22;2752;49.992;8.422;2023-07-09T13:11:23;37.70;1.00
5459;DHT22;2752;49.992;8.422;2023-07-09T13:13:55;37.70;1.00
5459;DHT22;2752;49.992;8.422;2023-07-09T13:16:23;37.80;1.00
5459;DHT22;2752;49.992;8.422;2023-07-09T13:18:50;37.90;1.00
5459;DHT22;2752;49.992;8.422;2023-07-09T13:21:18;37.90;1.00
5459;DHT22;2752;49.992;8.422;2023-07-09T13:23:45;38.00;1.00
5459;DHT22;2752;49.992;8.422;2023-07-09T13:26:12;38.20;1.00
5459;DHT22;2752;49.992;8.422;2023-07-09T13:28:39;38.40;1.00
5459;DHT22;2752;49.992;8.422;2023-07-09T13:31:11;38.30;1.00
5459;DHT22;2752;49.992;8.422;2023-07-09T13:33:41;38.50;1.00
5459;DHT22;2752;49.992;8.422;2023-07-09T13:36:08;38.40;1.00
5459;DHT22;2752;49.992;8.422;2023-07-09T13:38:35;38.20;1.00
5459;DHT22;2752;49.992;8.422;2023-07-09T13:41:11;38.30;1.00
5459;DHT22;2752;49.992;8.422;2023-07-09T13:43:42;38.30;1.00
5459;DHT22;2752;49.992;8.422;2023-07-09T13:46:09;38.40;1.00
5459;DHT22;2752;49.992;8.422;2023-07-09T13:48:38;38.50;1.00
5459;DHT22;2752;49.992;8.422;2023-07-09T13:51:14;38.40;1.00
5459;DHT22;2752;49.992;8.422;2023-07-09T13:53:41;38.40;1.00
5459;DHT22;2752;49.992;8.422;2023-07-09T13:56:08;38.40;1.00
5459;DHT22;2752;49.992;8.422;2023-07-09T13:58:35;38.60;1.00
5459;DHT22;2752;49.992;8.422;2023-07-09T14:01:10;38.60;1.00
5459;DHT22;2752;49.992;8.422;2023-07-09T14:03:38;38.50;1.00
5459;DHT22;2752;49.992;8.422;2023-07-09T14:06:04;38.50;1.00
5459;DHT22;2752;49.992;8.422;2023-07-09T14:08:32;38.50;1.00
5459;DHT22;2752;49.992;8.422;2023-07-09T14:10:59;38.40;1.00
5459;DHT22;2752;49.992;8.422;2023-07-09T14:13:26;38.40;1.00
5459;DHT22;2752;49.992;8.422;2023-07-09T14:15:52;38.40;1.00
5459;DHT22;2752;49.992;8.422;2023-07-09T14:18:22;38.40;1.00
5459;DHT22;2752;49.992;8.422;2023-07-09T14:20:49;38.30;1.00
5459;DHT22;2752;49.992;8.422;2023-07-09T14:23:17;38.20;1.00
5459;DHT22;2752;49.992;8.422;2023-07-09T14:25:46;38.30;1.00
5459;DHT22;2752;49.992;8.422;2023-07-09T14:28:15;38.40;1.00
5459;DHT22;2752;49.992;8.422;2023-07-09T14:30:42;38.50;1.00
5459;DHT22;2752;49.992;8.422;2023-07-09T14:33:12;38.50;1.00
5459;DHT22;2752;49.992;8.422;2023-07-09T14:35:40;38.50;1.00
5459;DHT22;2752;49.992;8.422;2023-07-09T14:38:14;38.50;1.00
5459;DHT22;2752;49.992;8.422;2023-07-09T14:40:42;38.50;1.00
5459;DHT22;2752;49.992;8.422;2023-07-09T14:43:10;38.50;1.00
5459;DHT22;2752;49.992;8.422;2023-07-09T14:45:37;38.70;1.00
5459;DHT22;2752;49.992;8.422;2023-07-09T14:48:09;38.70;1.00
5459;DHT22;2752;49.992;8.422;2023-07-09T14:50:36;38.60;1.00
5459;DHT22;2752;49.992;8.422;2023-07-09T14:53:03;38.40;1.00
5459;DHT22;2752;49.992;8.422;2023-07-09T14:55:32;38.40;1.00
5459;DHT22;2752;49.992;8.422;2023-07-09T14:57:58;38.20;1.00
5459;DHT22;2752;49.992;8.422;2023-07-09T15:00:27;38.10;1.00
5459;DHT22;2752;49.992;8.422;2023-07-09T15:02:54;38.10;1.00
5459;DHT22;2752;49.992;8.422;2023-07-09T15:05:22;38.10;1.00
5459;DHT22;2752;49.992;8.422;2023-07-09T15:07:50;38.20;1.00
5459;DHT22;2752;49.992;8.422;2023-07-09T15:10:20;38.10;1.00
5459;DHT22;2752;49.992;8.422;2023-07-09T15:12:48;38.00;1.00
5459;DHT22;2752;49.992;8.422;2023-07-09T15:15:20;37.80;1.00
5459;DHT22;2752;49.992;8.422;2023-07-09T15:17:49;37.70;1.00
5459;DHT22;2752;49.992;8.422;2023-07-09T15:20:18;37.80;1.00
5459;DHT22;2752;49.992;8.422;2023-07-09T15:22:46;37.80;1.00
5459;DHT22;2752;49.992;8.422;2023-07-09T15:25:14;37.90;1.00
5459;DHT22;2752;49.992;8.422;2023-07-09T15:27:41;38.10;1.00
5459;DHT22;2752;49.992;8.422;2023-07-09T15:30:15;37.90;1.00
5459;DHT22;2752;49.992;8.422;2023-07-09T15:32:44;37.80;1.00
5459;DHT22;2752;49.992;8.422;2023-07-09T15:35:12;37.70;1.00
5459;DHT22;2752;49.992;8.422;2023-07-09T15:37:39;37.50;1.00
5459;DHT22;2752;49.992;8.422;2023-07-09T15:40:17;37.30;1.00
5459;DHT22;2752;49.992;8.422;2023-07-09T15:42:45;37.20;1.00
5459;DHT22;2752;49.992;8.422;2023-07-09T15:45:14;37.10;1.00
5459;DHT22;2752;49.992;8.422;2023-07-09T15:47:41;36.90;1.00
5459;DHT22;2752;49.992;8.422;2023-07-09T15:50:15;36.80;1.00
5459;DHT22;2752;49.992;8.422;2023-07-09T15:52:43;36.60;1.00
5459;DHT22;2752;49.992;8.422;2023-07-09T15:55:14;36.50;1.00
5459;DHT22;2752;49.992;8.422;2023-07-09T15:57:41;36.40;1.00
5459;DHT22;2752;49.992;8.422;2023-07-09T16:00:14;36.30;1.00
5459;DHT22;2752;49.992;8.422;2023-07-09T16:02:41;36.20;1.00
5459;DHT22;2752;49.992;8.422;2023-07-09T16:05:22;36.00;1.00
5459;DHT22;2752;49.992;8.422;2023-07-09T16:07:50;35.90;1.00
5459;DHT22;2752;49.992;8.422;2023-07-09T16:10:18;35.80;1.00
5459;DHT22;2752;49.992;8.422;2023-07-09T16:12:45;35.80;1.00
5459;DHT22;2752;49.992;8.422;2023-07-09T16:15:14;35.90;1.00
5459;DHT22;2752;49.992;8.422;2023-07-09T16:20:09;36.10;1.00
5459;DHT22;2752;49.992;8.422;2023-07-09T16:22:38;36.10;1.00
5459;DHT22;2752;49.992;8.422;2023-07-09T16:25:15;36.20;1.00
5459;DHT22;2752;49.992;8.422;2023-07-09T16:27:43;36.10;1.00
5459;DHT22;2752;49.992;8.422;2023-07-09T16:30:15;36.00;1.00
5459;DHT22;2752;49.992;8.422;2023-07-09T16:32:42;35.90;1.00
5459;DHT22;2752;49.992;8.422;2023-07-09T16:35:12;36.00;1.00
5459;DHT22;2752;49.992;8.422;2023-07-09T16:37:40;36.00;1.00
5459;DHT22;2752;49.992;8.422;2023-07-09T16:40:14;35.70;1.00
5459;DHT22;2752;49.992;8.422;2023-07-09T16:42:41;35.20;1.00
5459;DHT22;2752;49.992;8.422;2023-07-09T16:45:08;34.70;1.00
5459;DHT22;2752;49.992;8.422;2023-07-09T16:47:35;34.30;1.00
5459;DHT22;2752;49.992;8.422;2023-07-09T16:50:02;33.90;1.00
5459;DHT22;2752;49.992;8.422;2023-07-09T16:52:29;33.60;1.00
5459;DHT22;2752;49.992;8.422;2023-07-09T16:54:57;33.50;1.00
5459;DHT22;2752;49.992;8.422;2023-07-09T16:57:26;33.40;1.00
5459;DHT22;2752;49.992;8.422;2023-07-09T16:59:54;33.10;1.00
5459;DHT22;2752;49.992;8.422;2023-07-09T17:02:25;32.90;1.00